EDDG/FMO METAR and TAF weather

Enter ICAO airport designator
Station Type Date Time Source
EDDG METAR 2018/12/10 19:50 UTC NOAA

EDDG 101950Z 27011KT 9999 FEW019 04/02 Q1020 NOSIG


Station Type Date Time Source
EDDG Decoded METAR 2018/12/10 19:50 UTC NOAA

Muenster / Osnabrueck, Germany (EDDG) 52-08N 007-42E 53M
Dec 10, 2018 - 02:50 PM EST / 2018.12.10 1950 UTC
Wind: from the W (270 degrees) at 13 MPH (11 KT):0
Visibility: greater than 7 mile(s):0
Sky conditions: mostly clear
Temperature: 39 F (4 C)
Dew Point: 35 F (2 C)
Relative Humidity: 86%
Pressure (altimeter): 30.12 in. Hg (1020 hPa)
ob: EDDG 101950Z 27011KT 9999 FEW019 04/02 Q1020 NOSIG
cycle: 20

Station Type Date Time Source
EDDG TAF 2018/12/10 18:30 UTC NOAA

TAF EDDG 101700Z 1018/1118 27010KT 9999 SCT020 BKN030 PROB30
TEMPO 1018/1021 SHRA BKN014TCU
BECMG 1113/1116 31005KT


Example: see airport list